Fond du Lac, WI

2:37 PM CDT on August 01, 2015 (GMT -0500)
Hunters Grove | | Change Station
CLOSE
Current Station
Personal Weather Station
Location: Fond Du Lac, WI
Elevation: 764 ft
Nearby Weather Stations

Elev 764 ft 43.79 °N, 88.39 °W | Updated 9 minutes ago

Clear
Clear
85.6 °F
Feels Like 85 °F
N
12.5
Wind Variable Wind from SW

Today
High -- | Low -- °F
--% Chance of Precip.
Yesterday
High -- | Low -- °F
Precip. -- in
5:42 AM 8:16 PM
Full, 97% visible
Pressure 29.91 in
Visibility 10.0 miles
Clouds Clear
Heat Index 85 °F
Dew Point 58 °F
Humidity 40%
Rainfall 0.00 in
Snow Depth Not available.
UV 10 out of 12
Pollen 7.70 out of 12
Air Quality Not available.
Flu Activity Not available.
METAR KFLD 011853Z AUTO 29011G20KT 10SM CLR 28/12 A2992 RMK AO2 SLP128 T02830117

More Conditions Fewer Conditions

Pressure 29.91 in
Visibility 10.0 miles
Clouds Clear
Heat Index 85 °F
Dew Point 58 °F
Humidity 40%
Rainfall 0.00 in
Snow Depth Not available.
UV 10 out of 12
Pollen 7.70 out of 12
Air Quality Not available.
Flu Activity Not available.
METAR KFLD 011853Z AUTO 29011G20KT 10SM CLR 28/12 A2992 RMK AO2 SLP128 T02830117

More Conditions Fewer Conditions

10-Day Weather Forecast

×

Almanac

Astronomy

Aug. 01, 2015 Rise Set
Actual Time
Civil Twilight
Nautical Twilight
Astronomical Twilight
Moon
Length of Visible Light
Length of Day
Tomorrow will be .
, % of the Moon is Illuminated

Today's Extremes

State Highs State Lows

Community

WunderPhotos

Upload Photos

1,843,043 photos uploaded!

WunderBlogs® & News

Nearby

Air Quality

  Air Quality AQ Index Pollutant
Not available.

Snow Depth

Station Depth Elevation

Earthquake Activity

City Distance Mag. Time & Date
Minimum magnitude displayed is 2.5.

Coastal Water Temperatures

Place Temperature

Stations

Nearby Weather Stations

Station Location Temp. Windchill Dew Point Humidity Wind Precip. Elev Updated Type